Time;durP1;ratioP1;P1;durP2;ratioP2;P2;SDS_P1;SDS_P2;PMS_P1;PMS_P2;Temp;Humidity;BMP_temperature;BMP_pressure;BME280_temperature;BME280_humidity;BME280_pressure;Samples;Min_cycle;Max_cycle;Signal;HPM_P1;HPM_P2
2021/09/10 00:01:09;;;;;;;2.27;1.93;;;;;;;20.49;59.13;98672.28;5129149;27;42504;-79
2021/09/10 00:03:37;;;;;;;2.50;1.77;;;;;;;20.46;58.89;98671.75;5129027;27;39232;-81
2021/09/10 00:06:04;;;;;;;2.13;1.87;;;;;;;20.49;58.67;98676.81;5112664;27;40614;-78
2021/09/10 00:08:32;;;;;;;2.90;2.33;;;;;;;20.49;58.98;98674.13;5131019;27;42481;-78
2021/09/10 00:10:59;;;;;;;2.40;2.20;;;;;;;20.49;58.98;98674.13;5132062;27;43296;-81
2021/09/10 00:13:27;;;;;;;2.67;2.07;;;;;;;20.49;59.19;98676.81;5132351;27;41286;-79
2021/09/10 00:15:56;;;;;;;2.47;1.77;;;;;;;20.50;58.65;98675.81;5132794;27;42924;-80
2021/09/10 00:18:24;;;;;;;2.50;2.30;;;;;;;20.51;58.58;98680.19;5132848;27;41774;-80
2021/09/10 00:20:51;;;;;;;2.30;1.87;;;;;;;20.36;58.83;98667.34;5114492;27;41245;-79
2021/09/10 00:23:19;;;;;;;2.03;1.80;;;;;;;20.42;58.99;98671.22;5132842;27;41278;-79
2021/09/10 00:25:47;;;;;;;2.90;2.20;;;;;;;20.34;58.70;98672.00;5115727;27;40984;-82
2021/09/10 00:28:15;;;;;;;2.03;1.50;;;;;;;20.31;59.11;98677.72;5133661;27;42657;-82
2021/09/10 00:30:42;;;;;;;2.43;2.23;;;;;;;20.24;59.34;98673.16;5133942;27;43126;-80
2021/09/10 00:33:11;;;;;;;2.23;1.80;;;;;;;20.21;59.14;98686.91;5114825;27;40062;-82
2021/09/10 00:35:38;;;;;;;2.20;1.77;;;;;;;20.15;59.36;98680.34;5132298;27;41810;-80
2021/09/10 00:38:06;;;;;;;1.97;1.63;;;;;;;20.07;59.18;98673.06;5114511;27;42878;-79
2021/09/10 00:40:33;;;;;;;1.93;1.83;;;;;;;20.04;59.34;98680.59;5115381;27;41341;-80
2021/09/10 00:43:01;;;;;;;3.13;1.77;;;;;;;20.00;59.42;98681.94;5133654;27;40073;-82
2021/09/10 00:45:29;;;;;;;2.37;2.17;;;;;;;19.86;59.97;98663.72;5114644;27;40882;-78
2021/09/10 00:47:57;;;;;;;1.90;1.80;;;;;;;19.93;60.09;98678.19;5132280;27;43050;-80
2021/09/10 00:50:27;;;;;;;3.43;2.30;;;;;;;19.86;60.06;98677.16;5114887;27;41507;-82
2021/09/10 00:52:55;;;;;;;4.97;2.17;;;;;;;19.87;60.41;98677.00;5132308;27;38959;-82
2021/09/10 00:55:26;;;;;;;2.73;2.00;;;;;;;19.82;60.19;98681.13;5133351;27;42954;-82
2021/09/10 00:57:53;;;;;;;2.90;2.10;;;;;;;19.76;60.82;98679.09;5132383;27;43067;-80
2021/09/10 01:00:21;;;;;;;2.60;2.23;;;;;;;19.62;60.50;98676.00;5131986;27;43057;-81
2021/09/10 01:02:49;;;;;;;1.80;1.70;;;;;;;19.65;60.45;98685.59;5132546;27;41342;-78
2021/09/10 01:05:17;;;;;;;4.47;2.13;;;;;;;19.58;60.78;98679.13;5131985;27;40759;-81
2021/09/10 01:07:48;;;;;;;1.97;1.70;;;;;;;19.51;60.61;98687.00;5131450;27;42024;-79
2021/09/10 01:10:17;;;;;;;2.13;1.63;;;;;;;19.44;60.90;98683.19;5133260;27;42343;-81
2021/09/10 01:12:44;;;;;;;2.63;2.10;;;;;;;19.38;61.16;98686.53;5114859;27;38568;-79
2021/09/10 01:15:12;;;;;;;2.20;2.00;;;;;;;19.29;61.42;98677.53;5133081;27;42006;-78
2021/09/10 01:17:40;;;;;;;3.10;2.47;;;;;;;19.20;61.87;98677.63;5132895;27;43086;-81
2021/09/10 01:20:10;;;;;;;2.93;1.97;;;;;;;19.20;61.63;98680.31;5132368;27;43989;-80
2021/09/10 01:22:39;;;;;;;1.90;1.70;;;;;;;19.15;61.58;98688.00;5142995;27;39324;-77
2021/09/10 01:25:12;;;;;;;1.70;1.60;;;;;;;19.11;61.71;98684.78;5142184;27;42166;-77
2021/09/10 01:27:41;;;;;;;2.70;2.00;;;;;;;19.08;61.57;98690.44;5125498;27;43035;-79
2021/09/10 01:30:11;;;;;;;2.23;1.83;;;;;;;18.93;61.30;98674.03;5144582;27;42815;-79
2021/09/10 01:32:39;;;;;;;2.00;1.87;;;;;;;18.98;61.52;98684.31;5142712;27;38960;-79
2021/09/10 01:35:08;;;;;;;2.53;2.23;;;;;;;18.95;61.60;98688.13;5142970;27;42117;-79
2021/09/10 01:37:36;;;;;;;2.67;2.20;;;;;;;18.91;61.61;98689.47;5140786;27;41628;-82
2021/09/10 01:40:05;;;;;;;2.20;1.87;;;;;;;18.89;61.87;98685.22;5133499;27;42736;-79
2021/09/10 01:42:34;;;;;;;1.93;1.73;;;;;;;18.80;62.02;98676.22;5134100;27;39995;-79
2021/09/10 01:45:01;;;;;;;2.77;2.07;;;;;;;18.82;62.67;98681.44;5132407;27;41017;-80
2021/09/10 01:47:29;;;;;;;2.60;2.40;;;;;;;18.78;62.38;98680.09;5132010;27;42764;-79
2021/09/10 01:49:56;;;;;;;2.37;2.17;;;;;;;18.76;62.25;98682.06;5115711;27;41507;-78
2021/09/10 01:52:24;;;;;;;3.00;2.47;;;;;;;18.74;62.44;98687.59;5112824;27;39648;-81
2021/09/10 01:54:51;;;;;;;3.07;1.90;;;;;;;18.61;62.57;98674.53;5114696;27;42414;-79
2021/09/10 01:57:19;;;;;;;1.57;1.47;;;;;;;18.61;62.92;98677.22;5131409;27;43836;-81
2021/09/10 01:59:48;;;;;;;1.87;1.77;;;;;;;18.65;63.36;98686.66;5132273;27;42935;-78
2021/09/10 02:02:15;;;;;;;2.10;1.90;;;;;;;18.64;62.80;98693.03;5130901;27;40196;-81
2021/09/10 02:04:43;;;;;;;2.50;2.10;;;;;;;18.63;63.10;98688.66;5113655;27;40795;-82
2021/09/10 02:07:11;;;;;;;2.50;2.30;;;;;;;18.64;62.95;98684.13;5130215;27;42962;-79
2021/09/10 02:09:38;;;;;;;2.27;2.07;;;;;;;18.64;63.09;98687.66;5113791;27;41226;-79
2021/09/10 02:12:07;;;;;;;2.10;1.90;;;;;;;18.66;63.24;98684.81;5130808;27;39435;-79
2021/09/10 02:14:35;;;;;;;1.93;1.70;;;;;;;18.68;63.30;98682.81;5129942;27;42025;-78
2021/09/10 02:17:06;;;;;;;2.97;2.23;;;;;;;18.62;63.85;98662.81;5113227;27;42284;-80
2021/09/10 02:19:33;;;;;;;3.67;2.57;;;;;;;18.74;63.55;98692.94;5131362;27;43355;-78
2021/09/10 02:22:01;;;;;;;3.03;2.10;;;;;;;18.76;63.40;98696.34;5129909;27;38940;-82
2021/09/10 02:24:28;;;;;;;2.53;2.17;;;;;;;18.70;63.12;98675.47;5113738;27;40829;-80
2021/09/10 02:26:56;;;;;;;2.07;1.90;;;;;;;18.82;63.33;98694.88;5130833;27;43291;-81
2021/09/10 02:29:23;;;;;;;1.83;1.63;;;;;;;18.82;63.57;98689.50;5131032;27;42542;-81
2021/09/10 02:31:51;;;;;;;2.10;1.90;;;;;;;18.84;63.12;98691.03;5112617;27;39063;-79
2021/09/10 02:34:20;;;;;;;2.70;2.40;;;;;;;18.83;63.54;98685.81;5131762;27;41758;-78
2021/09/10 02:36:47;;;;;;;3.03;2.00;;;;;;;18.88;63.33;98689.75;5131824;27;42759;-80
2021/09/10 02:39:15;;;;;;;2.90;1.73;;;;;;;18.91;63.03;98689.47;5129965;27;42404;-80
2021/09/10 02:41:43;;;;;;;3.77;2.10;;;;;;;18.86;63.17;98683.69;5131080;27;40764;-80
2021/09/10 02:44:10;;;;;;;2.30;1.97;;;;;;;18.84;63.16;98682.16;5113126;27;40727;-82
2021/09/10 02:46:38;;;;;;;3.33;2.20;;;;;;;18.98;63.02;98695.88;5114166;27;42747;-82
2021/09/10 02:49:06;;;;;;;2.37;1.90;;;;;;;18.98;63.00;98693.19;5132431;27;42511;-79
2021/09/10 02:51:35;;;;;;;2.40;2.20;;;;;;;19.01;62.94;98706.31;5113497;27;40513;-80
2021/09/10 02:54:03;;;;;;;3.03;2.03;;;;;;;18.91;63.14;98670.66;5113137;27;40698;-80
2021/09/10 02:56:31;;;;;;;2.60;2.13;;;;;;;19.04;63.33;98689.03;5130866;27;44005;-81
2021/09/10 02:59:01;;;;;;;1.63;1.53;;;;;;;19.06;63.82;98686.22;5113758;27;41525;-80
2021/09/10 03:01:30;;;;;;;3.10;2.10;;;;;;;19.02;64.34;98681.19;5129857;27;40824;-81
2021/09/10 03:03:58;;;;;;;3.30;2.43;;;;;;;19.06;64.34;98678.16;5130120;27;40761;-80
2021/09/10 03:06:26;;;;;;;2.67;2.20;;;;;;;19.11;63.62;98690.13;5111873;27;42956;-80
2021/09/10 03:08:54;;;;;;;1.63;1.53;;;;;;;19.18;63.37;98690.34;5113224;27;41210;-81
2021/09/10 03:11:22;;;;;;;3.20;1.80;;;;;;;19.12;63.57;98675.72;5113289;27;38717;-79
2021/09/10 03:13:50;;;;;;;2.87;2.20;;;;;;;19.17;63.54;98667.19;5112382;27;42103;-80
2021/09/10 03:16:18;;;;;;;2.90;2.10;;;;;;;19.32;63.75;98684.44;5130129;27;42839;-81
2021/09/10 03:18:45;;;;;;;2.67;2.43;;;;;;;19.38;63.03;98686.53;5112637;27;42197;-81
2021/09/10 03:21:13;;;;;;;3.53;2.47;;;;;;;19.41;63.55;98669.25;5129992;27;39008;-81
2021/09/10 03:23:40;;;;;;;2.47;2.27;;;;;;;19.48;63.06;98681.88;5129677;27;42243;-80
2021/09/10 03:26:09;;;;;;;2.47;2.17;;;;;;;19.48;62.97;98679.22;5129726;27;41787;-81
2021/09/10 03:28:36;;;;;;;2.50;1.77;;;;;;;19.56;62.71;98684.66;5131243;27;43199;-79
2021/09/10 03:31:04;;;;;;;2.53;1.87;;;;;;;19.59;62.85;98686.19;5131178;27;41358;-81
2021/09/10 03:33:31;;;;;;;2.20;2.00;;;;;;;19.58;63.18;98676.44;5129788;27;43771;-81
2021/09/10 03:35:59;;;;;;;2.60;2.07;;;;;;;19.54;62.99;98673.22;5112776;27;42157;-80
2021/09/10 03:38:26;;;;;;;3.40;2.47;;;;;;;19.40;62.68;98660.34;5131685;27;43954;-80
2021/09/10 03:40:54;;;;;;;2.70;2.10;;;;;;;19.37;63.03;98658.81;5112582;27;39230;-81
2021/09/10 03:43:23;;;;;;;3.53;2.33;;;;;;;19.45;62.88;98671.44;5130715;27;40530;-81
2021/09/10 03:45:50;;;;;;;2.07;1.87;;;;;;;19.42;63.27;98676.28;5133356;27;43841;-78
2021/09/10 03:48:17;;;;;;;3.23;2.27;;;;;;;19.41;62.79;98670.06;5133091;27;42742;-80
2021/09/10 03:50:45;;;;;;;3.57;2.37;;;;;;;19.40;62.70;98679.16;5116091;27;38896;-79
2021/09/10 03:53:13;;;;;;;2.43;2.23;;;;;;;19.34;62.97;98669.03;5133928;27;41977;-80
2021/09/10 03:55:40;;;;;;;3.07;2.10;;;;;;;19.26;62.80;98650.16;5132758;27;42704;-79
2021/09/10 03:58:08;;;;;;;2.37;2.17;;;;;;;19.22;63.28;98656.84;5116063;27;42373;-81
2021/09/10 04:00:38;;;;;;;3.07;2.17;;;;;;;19.28;63.40;98667.81;5133922;27;39938;-79
2021/09/10 04:03:06;;;;;;;2.37;2.00;;;;;;;19.25;63.06;98669.97;5132989;27;41906;-79
2021/09/10 04:05:35;;;;;;;2.93;2.20;;;;;;;19.19;63.22;98681.31;5132127;27;43884;-80
2021/09/10 04:08:04;;;;;;;2.97;2.10;;;;;;;19.05;63.10;98657.69;5115549;27;42441;-80
2021/09/10 04:10:31;;;;;;;2.67;1.90;;;;;;;19.13;63.25;98676.56;5116184;27;40232;-79
2021/09/10 04:12:59;;;;;;;2.27;1.87;;;;;;;19.10;63.53;98676.88;5133334;27;41834;-79
2021/09/10 04:15:27;;;;;;;2.57;1.70;;;;;;;18.90;63.28;98655.56;5132992;27;43558;-79
2021/09/10 04:17:56;;;;;;;2.03;1.67;;;;;;;19.05;63.64;98681.84;5132086;27;42622;-81
2021/09/10 04:20:24;;;;;;;2.47;2.27;;;;;;;18.98;63.75;98679.78;5134427;27;41055;-79
2021/09/10 04:22:51;;;;;;;3.10;2.27;;;;;;;18.91;63.97;98683.25;5115789;27;40846;-80
2021/09/10 04:25:19;;;;;;;2.57;2.37;;;;;;;18.72;64.43;98660.06;5133153;27;43685;-81
2021/09/10 04:27:47;;;;;;;4.03;2.57;;;;;;;18.70;64.43;98663.88;5133856;27;42473;-82
2021/09/10 04:30:14;;;;;;;2.30;2.03;;;;;;;18.62;64.92;98661.97;5132398;27;38903;-81
2021/09/10 04:32:42;;;;;;;3.13;2.87;;;;;;;18.61;64.71;98671.00;5115879;27;40773;-81
2021/09/10 04:35:12;;;;;;;1.70;1.60;;;;;;;18.59;64.40;98684.56;5132287;27;43975;-81
2021/09/10 04:37:40;;;;;;;2.70;2.23;;;;;;;18.53;64.68;98684.31;5115790;27;42782;-79
2021/09/10 04:40:09;;;;;;;1.80;1.70;;;;;;;18.48;64.44;98682.06;5134451;27;40004;-81
2021/09/10 04:42:38;;;;;;;1.70;1.40;;;;;;;18.41;64.25;98674.78;5134295;27;41464;-80
2021/09/10 04:45:06;;;;;;;2.00;1.90;;;;;;;18.38;64.62;98685.78;5132972;27;43814;-82
2021/09/10 04:47:34;;;;;;;2.73;1.90;;;;;;;18.33;64.37;98682.72;5114808;27;41347;-81
2021/09/10 04:50:01;;;;;;;2.13;1.77;;;;;;;18.28;64.49;98692.06;5134430;27;39897;-82
2021/09/10 04:52:31;;;;;;;1.90;1.73;;;;;;;18.24;64.74;98690.66;5114816;27;42268;-79
2021/09/10 04:54:59;;;;;;;2.73;2.20;;;;;;;18.21;64.86;98690.94;5132003;27;43281;-81
2021/09/10 04:57:26;;;;;;;2.37;2.13;;;;;;;18.20;64.78;98688.41;5114049;27;41263;-82
2021/09/10 04:59:54;;;;;;;2.87;2.33;;;;;;;18.17;64.63;98689.56;5133489;27;40126;-79
2021/09/10 05:02:21;;;;;;;2.50;2.00;;;;;;;18.14;64.69;98679.13;5115257;27;40648;-79
2021/09/10 05:04:49;;;;;;;2.63;2.27;;;;;;;18.18;64.56;98693.91;5132184;27;43145;-81
2021/09/10 05:07:17;;;;;;;2.63;2.00;;;;;;;18.19;64.67;98692.94;5114282;27;41810;-79
2021/09/10 05:09:46;;;;;;;2.60;1.90;;;;;;;18.20;64.27;98694.63;5131354;27;39922;-81
2021/09/10 05:12:15;;;;;;;2.47;1.80;;;;;;;18.11;64.36;98679.44;5111509;28;40692;-80
2021/09/10 05:14:43;;;;;;;1.90;1.63;;;;;;;18.22;64.29;98708.72;5094761;28;42744;-81
2021/09/10 05:17:11;;;;;;;2.77;1.87;;;;;;;18.23;64.68;98705.06;5093833;28;41074;-79
2021/09/10 05:19:39;;;;;;;2.70;2.13;;;;;;;18.26;64.81;98710.13;5094727;28;38856;-81
2021/09/10 05:22:06;;;;;;;6.53;4.27;;;;;;;18.27;64.69;98706.44;5111881;28;41609;-81
2021/09/10 05:24:34;;;;;;;13.77;7.90;;;;;;;18.29;64.93;98699.13;5141462;27;43097;-79
2021/09/10 05:27:04;;;;;;;8.67;5.07;;;;;;;18.34;64.75;98706.69;5113944;27;42299;-80
2021/09/10 05:29:32;;;;;;;4.77;4.13;;;;;;;18.37;65.22;98703.72;5132817;27;39241;-78
2021/09/10 05:32:00;;;;;;;3.40;2.67;;;;;;;18.42;65.41;98697.91;5130930;27;41991;-79
2021/09/10 05:34:27;;;;;;;3.33;2.47;;;;;;;18.50;65.64;98706.91;5114467;27;41837;-79
2021/09/10 05:36:55;;;;;;;3.33;2.47;;;;;;;18.58;65.92;98711.53;5107944;27;42526;-78
2021/09/10 05:39:23;;;;;;;3.37;2.53;;;;;;;18.65;65.86;98704.59;5129683;27;41007;-78
2021/09/10 05:41:51;;;;;;;3.93;3.00;;;;;;;18.74;65.52;98714.41;5113194;27;40647;-79
2021/09/10 05:44:20;;;;;;;2.90;2.60;;;;;;;18.84;65.41;98715.19;5113882;27;41715;-77
2021/09/10 05:46:48;;;;;;;2.53;1.90;;;;;;;18.92;65.24;98715.25;5108691;27;41111;-79
2021/09/10 05:49:16;;;;;;;3.30;2.30;;;;;;;19.06;65.32;98718.41;5130057;27;40107;-85
2021/09/10 05:51:44;;;;;;;2.60;2.40;;;;;;;19.13;65.19;98703.41;5129690;27;41849;-78
2021/09/10 05:54:12;;;;;;;3.73;2.13;;;;;;;19.32;64.50;98722.03;5130866;27;41864;-79
2021/09/10 05:56:40;;;;;;;2.27;2.07;;;;;;;19.46;64.39;98710.75;5112129;27;41395;-78
2021/09/10 05:59:07;;;;;;;3.13;2.27;;;;;;;19.60;64.40;98718.28;5130401;27;41585;-79
2021/09/10 06:01:36;;;;;;;2.07;1.87;;;;;;;19.71;63.78;98718.03;5112796;27;40868;-79
2021/09/10 06:04:04;;;;;;;2.37;2.17;;;;;;;19.83;63.86;98717.75;5130738;27;42403;-83
2021/09/10 06:06:32;;;;;;;2.50;2.17;;;;;;;19.96;63.55;98715.50;5112930;27;42396;-83
2021/09/10 06:09:00;;;;;;;2.20;2.00;;;;;;;20.19;63.33;98726.56;5131481;27;40207;-78
2021/09/10 06:11:27;;;;;;;2.97;2.17;;;;;;;20.37;62.98;98733.59;5113563;27;40986;-81
2021/09/10 06:13:56;;;;;;;3.03;2.70;;;;;;;20.54;62.73;98739.03;5130354;27;43268;-82
2021/09/10 06:16:24;;;;;;;2.57;2.30;;;;;;;20.71;62.50;98743.47;5112810;27;41238;-82
2021/09/10 06:18:53;;;;;;;3.13;2.33;;;;;;;20.90;62.57;98740.50;5132098;27;41219;-84
2021/09/10 06:21:21;;;;;;;2.70;2.20;;;;;;;21.10;62.16;98747.31;5128905;27;41872;-78
2021/09/10 06:23:48;;;;;;;2.67;2.13;;;;;;;21.25;62.11;98730.53;5130806;27;43775;-79
2021/09/10 06:26:18;;;;;;;2.63;2.30;;;;;;;21.50;61.66;98730.38;5130022;27;41383;-79
2021/09/10 06:28:47;;;;;;;2.70;2.50;;;;;;;21.85;60.99;98752.59;5114618;27;39868;-79
2021/09/10 06:31:15;;;;;;;3.33;2.87;;;;;;;22.14;60.47;98752.06;5130839;27;41875;-81
2021/09/10 06:33:42;;;;;;;3.07;2.57;;;;;;;22.42;60.08;98755.22;5114245;27;43421;-80
2021/09/10 06:36:11;;;;;;;3.40;3.10;;;;;;;22.62;58.55;98745.72;5113059;27;41794;-79
2021/09/10 06:38:39;;;;;;;2.53;2.33;;;;;;;22.92;58.25;98746.75;5130961;27;38918;-81
2021/09/10 06:41:07;;;;;;;2.77;2.20;;;;;;;23.21;58.06;98752.34;5129595;27;41040;-76
2021/09/10 06:43:34;;;;;;;2.67;2.47;;;;;;;23.45;56.92;98759.44;5112909;27;44533;-79
2021/09/10 06:46:02;;;;;;;2.80;2.60;;;;;;;23.64;56.09;98756.28;5128821;27;42548;-77
2021/09/10 06:48:29;;;;;;;2.93;2.40;;;;;;;23.83;55.45;98751.41;5130438;27;40928;-77
2021/09/10 06:50:57;;;;;;;3.30;2.63;;;;;;;23.99;54.67;98746.66;5130345;27;41737;-77
2021/09/10 06:53:26;;;;;;;2.40;2.20;;;;;;;24.33;54.30;98769.72;5110929;27;41863;-77
2021/09/10 06:55:54;;;;;;;2.60;2.40;;;;;;;24.40;53.59;98727.31;5112706;27;42657;-78
2021/09/10 06:58:22;;;;;;;3.03;2.73;;;;;;;24.84;53.01;98761.66;5131146;27;39846;-78
2021/09/10 07:00:50;;;;;;;2.60;2.40;;;;;;;24.96;51.67;98766.44;5125922;27;41846;-83
2021/09/10 07:03:17;;;;;;;2.83;2.50;;;;;;;25.02;51.62;98760.25;5129497;27;42781;-83
2021/09/10 07:05:45;;;;;;;2.47;2.20;;;;;;;25.22;52.46;98752.34;5136236;27;42137;-84
2021/09/10 07:08:13;;;;;;;2.50;2.30;;;;;;;25.83;50.32;98769.06;5119897;27;38734;-82
2021/09/10 07:10:42;;;;;;;2.63;2.43;;;;;;;26.17;50.03;98775.59;5118775;27;41467;-84
2021/09/10 07:13:10;;;;;;;2.33;1.90;;;;;;;25.93;49.68;98777.72;5136861;27;43164;-83
2021/09/10 07:15:37;;;;;;;2.33;2.13;;;;;;;25.67;50.13;98785.59;5119186;27;41255;-84
2021/09/10 07:18:05;;;;;;;2.60;2.30;;;;;;;25.48;50.63;98786.19;5129042;27;39555;-83
2021/09/10 07:20:33;;;;;;;2.17;1.97;;;;;;;25.32;51.04;98788.13;5113155;27;41137;-84
2021/09/10 07:23:01;;;;;;;3.73;2.23;;;;;;;25.09;50.87;98775.78;5129982;27;42839;-84
2021/09/10 07:25:29;;;;;;;3.17;2.80;;;;;;;25.06;51.20;98793.25;5114029;27;41428;-83
2021/09/10 07:28:03;;;;;;;2.40;2.20;;;;;;;24.95;51.54;98791.88;5113098;27;39147;-84
2021/09/10 07:30:31;;;;;;;2.60;2.27;;;;;;;24.91;51.62;98787.81;5124476;27;40870;-82
2021/09/10 07:32:58;;;;;;;2.63;2.33;;;;;;;24.85;51.93;98795.88;5137738;27;42579;-85
2021/09/10 07:35:27;;;;;;;2.53;2.33;;;;;;;24.70;52.01;98771.50;5123482;27;41644;-84
2021/09/10 07:37:56;;;;;;;2.23;2.03;;;;;;;24.78;52.48;98797.63;5123846;27;41273;-86
2021/09/10 07:40:24;;;;;;;2.23;2.03;;;;;;;24.82;52.36;98791.66;5127897;27;40815;-85
2021/09/10 07:42:52;;;;;;;4.43;2.67;;;;;;;24.81;52.16;98784.56;5116974;27;43108;-85
2021/09/10 07:45:22;;;;;;;2.70;2.50;;;;;;;24.96;52.07;98784.56;5142258;27;42089;-83
2021/09/10 07:47:49;;;;;;;2.63;2.43;;;;;;;25.75;51.36;98809.88;5117173;27;38854;-85
2021/09/10 07:50:17;;;;;;;2.43;2.23;;;;;;;26.79;48.86;98798.19;5139975;27;41762;-85
2021/09/10 07:52:45;;;;;;;2.30;2.00;;;;;;;27.03;46.86;98806.91;5116273;27;41680;-85
2021/09/10 07:55:13;;;;;;;2.97;2.30;;;;;;;26.96;46.74;98825.03;5129977;27;42141;-84
2021/09/10 07:57:40;;;;;;;2.83;2.33;;;;;;;26.78;47.17;98823.69;5119538;27;39247;-83
2021/09/10 08:00:09;;;;;;;2.63;2.43;;;;;;;27.55;46.25;98838.91;5121245;27;40914;-83
2021/09/10 08:02:38;;;;;;;3.13;2.53;;;;;;;29.54;43.19;98840.50;5138422;27;42860;-84
2021/09/10 08:05:07;;;;;;;3.00;2.70;;;;;;;30.84;39.87;98845.19;5139890;27;43060;-85
2021/09/10 08:07:35;;;;;;;2.70;2.50;;;;;;;30.30;40.38;98854.91;5136943;27;40486;-85
2021/09/10 08:10:03;;;;;;;2.60;2.30;;;;;;;29.83;40.91;98859.00;5127478;27;42201;-82
2021/09/10 08:12:31;;;;;;;2.37;2.17;;;;;;;29.30;41.52;98866.59;5129398;27;43203;-83
2021/09/10 08:14:58;;;;;;;2.63;2.43;;;;;;;29.00;42.73;98858.09;5124152;27;41225;-84
2021/09/10 08:17:26;;;;;;;3.30;2.70;;;;;;;28.74;42.59;98858.94;5113112;27;39439;-85
2021/09/10 08:19:56;;;;;;;2.30;2.07;;;;;;;28.46;43.44;98861.06;5118459;27;41627;-84
2021/09/10 08:22:23;;;;;;;2.43;2.23;;;;;;;28.23;43.63;98854.16;5112151;27;42672;-83
2021/09/10 08:24:52;;;;;;;2.40;2.20;;;;;;;28.20;45.14;98843.66;5125239;27;42559;-83
2021/09/10 08:27:20;;;;;;;2.10;1.90;;;;;;;28.49;44.87;98836.13;5128990;27;40653;-84
2021/09/10 08:29:47;;;;;;;2.83;2.40;;;;;;;29.31;42.59;98849.16;5141058;27;41688;-83
2021/09/10 08:32:15;;;;;;;2.67;2.47;;;;;;;30.11;40.95;98864.09;5121444;27;42402;-85
2021/09/10 08:34:44;;;;;;;2.80;2.43;;;;;;;30.79;40.13;98874.28;5117600;27;41595;-86
2021/09/10 08:37:13;;;;;;;2.03;1.93;;;;;;;31.14;38.14;98893.75;5122225;27;39418;-84
2021/09/10 08:39:41;;;;;;;2.80;2.60;;;;;;;31.92;37.56;98880.97;5139923;27;41899;-83
2021/09/10 08:42:10;;;;;;;2.50;2.30;;;;;;;33.62;35.44;98908.44;5122253;27;42256;-82
2021/09/10 08:44:40;;;;;;;2.60;2.40;;;;;;;34.67;33.26;98915.38;5109810;27;41061;-82
2021/09/10 08:47:10;;;;;;;2.35;2.13;;;;;;;35.35;32.40;98914.28;5127483;27;39126;-83
2021/09/10 08:49:39;;;;;;;2.85;2.28;;;;;;;36.18;30.18;98915.81;5134363;27;41973;-83
2021/09/10 08:52:07;;;;;;;2.10;2.00;;;;;;;36.75;30.01;98924.41;5117877;27;41903;-82
2021/09/10 08:54:37;;;;;;;2.35;2.13;;;;;;;36.54;30.56;98915.09;5119549;27;41246;-83
2021/09/10 08:57:05;;;;;;;2.20;2.10;;;;;;;35.90;30.75;98919.66;5137562;27;40190;-82
2021/09/10 08:59:33;;;;;;;2.40;2.20;;;;;;;35.64;30.56;98918.50;5118768;27;41820;-82
2021/09/10 09:02:01;;;;;;;2.50;2.30;;;;;;;36.24;29.42;98923.06;5137989;27;42722;-81
2021/09/10 09:04:32;;;;;;;2.05;1.95;;;;;;;36.36;29.52;98918.22;5141114;27;42253;-81
2021/09/10 09:07:00;;;;;;;2.07;1.93;;;;;;;37.08;27.73;98948.13;5140469;27;40550;-81
2021/09/10 09:09:38;;;;;;;2.50;2.30;;;;;;;38.39;26.49;98952.63;5139529;27;41088;-80
2021/09/10 09:12:18;;;;;;;2.95;2.75;;;;;;;38.85;25.60;98949.91;5135537;27;42751;-81
2021/09/10 09:14:54;;;;;;;1.77;1.67;;;;;;;38.46;26.52;98931.88;5137781;27;42589;-77
2021/09/10 09:17:26;;;;;;;1.80;1.70;;;;;;;37.79;26.69;98937.50;5108938;27;40072;-77
2021/09/10 09:20:18;;;;;;;2.17;1.98;;;;;;;36.63;27.13;98929.22;5122559;27;40750;-83
2021/09/10 09:23:01;;;;;;;2.03;1.93;;;;;;;35.62;27.39;98929.75;5143651;27;43369;-84
2021/09/10 09:25:33;;;;;;;1.93;1.83;;;;;;;34.80;29.53;98915.06;5118601;27;41057;-77
2021/09/10 09:28:18;;;;;;;2.13;2.03;;;;;;;34.25;30.22;98897.31;5118537;27;38874;-82
2021/09/10 09:30:48;;;;;;;2.17;1.97;;;;;;;33.96;30.38;98903.94;5142939;27;42029;-81
2021/09/10 09:33:17;;;;;;;2.00;1.87;;;;;;;33.66;31.20;98898.63;5129855;27;42850;-80
2021/09/10 09:35:47;;;;;;;2.40;2.20;;;;;;;33.48;31.20;98904.31;5122937;27;41675;-79
2021/09/10 09:38:17;;;;;;;2.43;2.10;;;;;;;33.16;31.01;98888.19;5134447;27;40059;-77
2021/09/10 09:40:52;;;;;;;2.47;2.27;;;;;;;32.83;31.33;98904.44;5141793;27;41538;-77
2021/09/10 09:43:21;;;;;;;2.00;1.90;;;;;;;32.32;32.34;98866.69;5133706;27;44228;-79
2021/09/10 09:45:51;;;;;;;2.87;2.67;;;;;;;32.22;32.68;98891.94;5133010;27;42975;-77
2021/09/10 09:48:20;;;;;;;2.33;2.20;;;;;;;31.86;33.17;98883.81;5134441;27;40903;-76
2021/09/10 09:50:49;;;;;;;2.20;2.00;;;;;;;31.68;34.04;98882.78;5142043;27;40929;-77
2021/09/10 09:53:17;;;;;;;2.73;2.53;;;;;;;31.57;34.10;98889.00;5128668;27;42652;-78
2021/09/10 09:55:48;;;;;;;2.50;2.30;;;;;;;31.37;34.24;98888.41;5121040;27;41150;-76
2021/09/10 09:58:17;;;;;;;1.90;1.70;;;;;;;31.13;33.88;98875.66;5134234;27;40632;-77
2021/09/10 10:00:48;;;;;;;3.13;2.10;;;;;;;31.06;34.31;98876.50;5132258;27;41544;-82
2021/09/10 10:03:16;;;;;;;2.30;2.10;;;;;;;31.04;34.08;98878.63;5121638;27;42275;-81
2021/09/10 10:05:53;;;;;;;1.80;1.70;;;;;;;31.02;33.81;98880.78;5139207;27;42524;-82
2021/09/10 10:08:25;;;;;;;2.63;1.70;;;;;;;30.92;34.76;98858.56;5117714;27;41338;-79
2021/09/10 10:11:01;;;;;;;2.03;1.70;;;;;;;30.85;35.00;98846.03;5126277;27;42098;-82
2021/09/10 10:13:31;;;;;;;2.10;1.90;;;;;;;31.08;34.84;98868.91;5126454;27;42973;-81
2021/09/10 10:15:59;;;;;;;1.87;1.77;;;;;;;31.30;34.50;98871.22;5121311;27;42353;-79
2021/09/10 10:18:40;;;;;;;2.47;2.00;;;;;;;31.30;34.51;98852.91;5131381;27;40396;-78
2021/09/10 10:21:09;;;;;;;1.90;1.80;;;;;;;31.64;33.25;98873.38;5142639;27;40602;-78
2021/09/10 10:23:55;;;;;;;2.13;1.83;;;;;;;32.40;32.68;98872.66;5136768;27;43696;-77
2021/09/10 10:26:36;;;;;;;2.20;2.10;;;;;;;32.90;31.87;98882.38;5130798;27;42540;-81
2021/09/10 10:29:10;;;;;;;2.40;2.20;;;;;;;33.00;31.56;98888.97;5126027;27;40019;-82
2021/09/10 10:32:02;;;;;;;2.63;2.43;;;;;;;33.53;30.83;98887.91;5141221;27;41504;-83
2021/09/10 10:34:37;;;;;;;2.40;2.20;;;;;;;34.57;29.83;98894.03;5133826;27;42944;-83
2021/09/10 10:37:39;;;;;;;2.33;2.13;;;;;;;35.89;28.48;98902.28;5114012;27;41526;-84
2021/09/10 10:40:29;;;;;;;2.72;2.08;;;;;;;36.59;26.88;98906.88;5120973;27;21206;-81
2021/09/10 10:43:03;;;;;;;2.47;2.28;;;;;;;37.50;25.53;98911.34;5127977;27;42544;-78
2021/09/10 10:46:02;;;;;;;1.90;1.80;;;;;;;38.44;24.90;98911.13;5135463;27;43656;-80
2021/09/10 10:48:51;;;;;;;1.65;1.55;;;;;;;38.74;24.41;98913.91;5137958;27;41767;-79
2021/09/10 10:51:51;;;;;;;2.33;2.13;;;;;;;38.27;24.52;98907.78;5128954;27;40207;-79
2021/09/10 10:54:26;;;;;;;2.10;2.00;;;;;;;37.77;25.29;98905.69;5137350;27;42547;-78
2021/09/10 10:56:54;;;;;;;2.28;1.80;;;;;;;37.47;25.19;98898.91;5129019;27;43151;-82
2021/09/10 10:59:31;;;;;;;2.05;1.95;;;;;;;37.46;25.38;98894.50;5095635;27;40904;-81
2021/09/10 11:02:35;;;;;;;1.85;1.75;;;;;;;37.95;25.36;98897.75;5137378;27;40060;-78
2021/09/10 11:05:08;;;;;;;2.38;2.17;;;;;;;38.07;25.24;98881.72;5063273;28;42258;-81
2021/09/10 11:07:36;;;;;;;2.15;2.05;;;;;;;38.39;23.95;98897.28;5054430;28;42649;-82
2021/09/10 11:10:06;;;;;;;2.17;2.08;;;;;;;38.90;24.91;98883.44;5078906;27;41249;-82
2021/09/10 11:12:34;;;;;;;2.10;2.00;;;;;;;39.11;23.14;98882.31;5115292;27;39003;-80
2021/09/10 11:15:17;;;;;;;2.35;2.17;;;;;;;39.36;23.65;98893.31;5119803;27;41617;-84
2021/09/10 11:17:51;;;;;;;2.15;1.95;;;;;;;39.68;23.01;98903.22;5131593;27;42678;-79
2021/09/10 11:20:26;;;;;;;2.40;2.20;;;;;;;39.96;22.45;98899.75;5134857;27;42696;-78
2021/09/10 11:22:53;;;;;;;2.17;2.08;;;;;;;40.40;22.23;98860.09;5134131;27;40660;-79
2021/09/10 11:25:21;;;;;;;2.08;1.98;;;;;;;41.54;20.60;98914.03;5119610;27;42317;-82
2021/09/10 11:27:49;;;;;;;2.30;2.10;;;;;;;42.04;20.80;98906.13;5119187;27;42167;-82
2021/09/10 11:30:18;;;;;;;2.13;2.03;;;;;;;41.80;21.21;98910.88;5134798;27;42443;-83
2021/09/10 11:32:46;;;;;;;2.05;1.88;;;;;;;41.08;21.76;98898.91;5112252;27;39144;-85
2021/09/10 11:35:18;;;;;;;2.25;2.15;;;;;;;41.32;21.45;98896.16;5142121;27;41698;-81
2021/09/10 11:37:55;;;;;;;2.25;2.05;;;;;;;41.52;21.60;98893.16;5114033;27;41997;-80
2021/09/10 11:40:35;;;;;;;2.10;2.00;;;;;;;43.22;19.56;98891.97;5116477;27;42153;-82
2021/09/10 11:43:07;;;;;;;1.83;1.73;;;;;;;44.50;18.05;98883.31;5125426;27;40065;-80
2021/09/10 11:45:39;;;;;;;2.28;2.10;;;;;;;44.68;17.87;98901.00;5122864;27;41032;-78